Αρχική σελίδα
METAR-TAF:

METAR-TAF

Αεροδρόμια :

Wekweeti, Βορειοδυτικά Εδάφη, Καναδάς

γεωγραφικό πλάτος: 64-11-27N, γεωγραφικό μήκος: 114-04-36W, υψόμετρο: 368 μ

Παρών καιρός

Η αναφορά έγινε 1 ώρα και 0 λεπτά πριν, στις 13:00 UTC
Άνεμος 4 kt από BA
Θερμοκρασία -37°C
Υγρασία 66%
Πίεση 1028 hPa
Ορατότητα: 14.5 χλμ
Καθαρός ουρανός

METAR: CYWE 101300Z AUTO 05004KT 9SM CLR M37/M41 A3036 RMK ICG INTMT SLP352

Χρόνος: 07:00 (14:00 UTC)

Πρόγνωση Καιρού

Η αναφορά έγινε 22 λεπτά πριν, στις 13:38 UTC
Η πρόγνωση ισχύει από τις 10 στις 14 UTC έως τις 11 στις 02 UTC
Άνεμος 5 kt από BA
Ορατότητα: 10 χλμ
Καθαρός ουρανός

TAF: CYWE 101338Z 1014/1102 05005KT P6SM SKC RMK FCST BASED ON AUTO OBS. NXT FCST BY 101900Z

Μετεωρολογικές αναφορές και προγνώσεις για περισσότερα από 4000 αεροδρόμια (δελτία METAR και TAF).

Οι διαθέσιμοι σταθμοί απεικονίζονται στο χάρτη με κίτρινες και κόκκινες κουκκίδες.

Μετακινήστε το ποντίκι πάνω από τις κουκκίδες για να δείτε το όνομα του σταθμού.

Στη συνέχεια, κάντε κλικ για να δείτε τις μετεωρολογικές αναφορές και τις προγνώσεις καιρού.

Για να αλλάξετε το χάρτη: κάντε κλικ στα πράσινα κουμπιά με τον μαύρο σταυρό για να ζουμάρετε, στο πράσινο κουμπί με την παύλα για να αφαιρέσετε το ζουμ ή στα πράσινα βέλη για να αντιπαραβάλλετε χάρτες.


METAR-TAF: